Time;durP1;ratioP1;P1;durP2;ratioP2;P2;SDS_P1;SDS_P2;PMS_P1;PMS_P2;Temp;Humidity;BMP_temperature;BMP_pressure;BME280_temperature;BME280_humidity;BME280_pressure;Samples;Min_cycle;Max_cycle;Signal;HPM_P1;HPM_P2
2020/12/14 00:01:09;;;;;;;32.58;11.93;;;;;;;0.85;81.80;98913.09;2277302;77;21268;-64
2020/12/14 00:04:11;;;;;;;36.05;12.15;;;;;;;0.92;81.87;98912.95;2298736;77;21558;-64
2020/12/14 00:07:14;;;;;;;;;;;;;;;0.99;81.93;98913.24;2301127;77;21154;-64
2020/12/14 00:10:16;;;;;;;35.23;12.77;;;;;;;1.02;81.85;98923.09;2299151;77;20261;-64
2020/12/14 00:13:18;;;;;;;33.88;12.70;;;;;;;1.10;81.83;98927.24;2298493;77;21252;-64
2020/12/14 00:16:20;;;;;;;32.03;12.37;;;;;;;1.14;81.46;98923.72;2298763;77;21744;-64
2020/12/14 00:19:23;;;;;;;34.55;11.75;;;;;;;1.11;81.14;98928.50;2298381;77;21145;-64
2020/12/14 00:22:25;;;;;;;33.40;11.97;;;;;;;1.03;81.36;98932.55;2298725;77;21276;-64
2020/12/14 00:25:27;;;;;;;31.20;11.93;;;;;;;1.01;81.55;98933.45;2298790;77;21288;-64
2020/12/14 00:28:29;;;;;;;32.53;11.57;;;;;;;1.03;81.58;98927.80;2298741;77;21712;-64
2020/12/14 00:31:31;;;;;;;35.13;12.45;;;;;;;0.94;81.53;98930.13;2298507;77;21245;-64
2020/12/14 00:34:33;;;;;;;33.23;11.65;;;;;;;1.01;81.80;98937.33;2298497;77;21272;-64
2020/12/14 00:37:35;;;;;;;34.92;12.43;;;;;;;1.14;81.66;98938.77;2298798;77;21264;-64
2020/12/14 00:40:37;;;;;;;33.85;12.03;;;;;;;1.16;81.59;98939.57;2277080;77;21304;-64
2020/12/14 00:43:40;;;;;;;35.25;12.13;;;;;;;1.16;81.38;98947.33;2298444;77;21899;-65
2020/12/14 00:46:42;;;;;;;33.95;11.50;;;;;;;1.18;81.35;98950.74;2298888;77;21709;-64
2020/12/14 00:49:44;;;;;;;35.73;12.40;;;;;;;1.21;81.51;98946.80;2298637;77;21257;-64
2020/12/14 00:52:46;;;;;;;35.15;11.63;;;;;;;1.28;81.27;98955.70;2298479;77;21264;-64
2020/12/14 00:55:49;;;;;;;35.83;12.88;;;;;;;1.21;81.06;98957.59;2298725;77;21716;-64
2020/12/14 00:58:51;;;;;;;34.27;12.18;;;;;;;1.18;81.37;98960.24;2298467;77;21288;-64
2020/12/14 01:01:53;;;;;;;36.08;14.63;;;;;;;1.18;81.35;98956.36;2298950;77;21258;-64
2020/12/14 01:04:55;;;;;;;37.75;13.18;;;;;;;1.16;81.36;98956.82;2298620;77;21252;-64
2020/12/14 01:07:57;;;;;;;40.05;13.75;;;;;;;1.14;81.46;98952.14;2298588;77;21568;-64
2020/12/14 01:10:59;;;;;;;36.77;13.32;;;;;;;1.15;81.41;98952.52;2298420;77;21237;-64
2020/12/14 01:14:01;;;;;;;33.38;12.20;;;;;;;1.11;81.49;98955.63;2298698;77;21681;-64
2020/12/14 01:17:04;;;;;;;36.05;12.07;;;;;;;1.07;81.51;98953.14;2298484;77;21751;-64
2020/12/14 01:20:06;;;;;;;36.98;12.82;;;;;;;1.01;81.60;98957.54;2298393;77;21261;-64
2020/12/14 01:23:08;;;;;;;37.70;12.90;;;;;;;0.93;81.65;98962.45;2298649;77;21692;-64
2020/12/14 01:26:10;;;;;;;35.40;13.03;;;;;;;0.91;81.93;98956.03;2298540;77;21261;-64
2020/12/14 01:29:12;;;;;;;35.92;13.13;;;;;;;0.97;81.90;98957.64;2298952;77;21264;-64
2020/12/14 01:32:14;;;;;;;41.77;12.85;;;;;;;0.97;81.98;98966.23;2298581;77;21748;-64
2020/12/14 01:35:16;;;;;;;37.05;12.80;;;;;;;0.98;81.91;98961.94;2298964;77;21264;-64
2020/12/14 01:38:18;;;;;;;37.28;13.43;;;;;;;0.93;81.99;98956.00;2298351;77;21269;-64
2020/12/14 01:41:20;;;;;;;37.03;13.45;;;;;;;0.91;82.00;98956.03;2298546;77;21721;-64
2020/12/14 01:44:22;;;;;;;37.78;13.35;;;;;;;0.95;81.84;98962.84;2298439;77;21257;-64
2020/12/14 01:47:24;;;;;;;36.70;12.28;;;;;;;0.96;82.21;98965.84;2298424;77;21267;-64
2020/12/14 01:50:27;;;;;;;38.98;13.80;;;;;;;1.24;82.39;98970.89;2298718;77;21269;-64
2020/12/14 01:53:29;;;;;;;36.55;13.00;;;;;;;1.38;81.96;98971.00;2298398;77;21257;-64
2020/12/14 01:56:31;;;;;;;37.70;13.78;;;;;;;1.33;81.38;98963.77;2298921;77;21288;-64
2020/12/14 01:59:33;;;;;;;46.18;17.20;;;;;;;1.33;81.38;98963.77;2298642;77;21281;-64
2020/12/14 02:02:35;;;;;;;41.05;15.70;;;;;;;1.29;81.28;98966.01;2298637;77;21558;-64
2020/12/14 02:05:37;;;;;;;39.58;14.00;;;;;;;1.18;81.38;98970.13;2298425;77;21248;-64
2020/12/14 02:08:40;;;;;;;36.80;13.83;;;;;;;1.32;81.84;98975.02;2298507;77;21690;-64
2020/12/14 02:11:42;;;;;;;37.30;13.85;;;;;;;1.28;81.21;98972.50;2298612;77;21252;-64
2020/12/14 02:14:44;;;;;;;42.25;14.68;;;;;;;1.22;81.39;98978.64;2298694;77;21252;-64
2020/12/14 02:17:46;;;;;;;37.73;13.28;;;;;;;1.18;81.56;98980.91;2298940;77;21277;-64
2020/12/14 02:20:48;;;;;;;39.55;13.35;;;;;;;1.20;81.41;98982.55;2298490;77;21292;-64
2020/12/14 02:23:50;;;;;;;37.80;14.10;;;;;;;1.18;81.66;98977.88;2298861;77;21253;-64
2020/12/14 02:26:52;;;;;;;38.67;14.25;;;;;;;1.17;81.46;98979.20;2298647;77;21256;-64
2020/12/14 02:29:54;;;;;;;37.67;14.28;;;;;;;1.10;81.47;98978.47;2298564;77;21265;-64
2020/12/14 02:32:56;;;;;;;38.60;14.03;;;;;;;0.99;81.63;98979.98;2298741;77;21286;-64
2020/12/14 02:35:59;;;;;;;37.98;13.58;;;;;;;0.90;81.81;98980.14;2298587;77;21688;-64
2020/12/14 02:39:01;;;;;;;40.05;14.80;;;;;;;0.92;82.10;98980.98;2298373;77;21272;-64
2020/12/14 02:42:03;;;;;;;44.15;15.38;;;;;;;1.08;82.16;98976.36;2298869;77;21261;-64
2020/12/14 02:45:05;;;;;;;41.58;15.40;;;;;;;1.15;82.16;98977.95;2298424;77;21686;-64
2020/12/14 02:48:07;;;;;;;41.08;14.45;;;;;;;1.11;81.70;98978.88;2298657;77;21264;-64
2020/12/14 02:51:09;;;;;;;37.25;13.83;;;;;;;1.08;81.87;98983.24;2298900;77;21265;-64
2020/12/14 02:54:11;;;;;;;37.05;12.90;;;;;;;1.04;81.83;98990.22;2298558;77;21273;-64
2020/12/14 02:57:13;;;;;;;38.53;13.83;;;;;;;0.99;81.93;98990.31;2298744;77;21308;-64
2020/12/14 03:00:16;;;;;;;38.30;13.98;;;;;;;0.94;82.11;98980.50;2298812;77;21925;-64
2020/12/14 03:03:18;;;;;;;42.43;15.43;;;;;;;0.93;82.13;98989.13;2298775;77;21685;-64
2020/12/14 03:06:20;;;;;;;39.95;14.83;;;;;;;0.94;82.24;98985.66;2298866;77;21304;-64
2020/12/14 03:09:22;;;;;;;37.05;14.10;;;;;;;0.97;82.29;98990.77;2298736;77;21554;-64
2020/12/14 03:12:25;;;;;;;38.83;14.03;;;;;;;1.00;82.23;98995.87;2298573;77;21118;-64
2020/12/14 03:15:27;;;;;;;40.35;14.68;;;;;;;1.04;82.11;98994.94;2298585;77;21597;-64
2020/12/14 03:18:30;;;;;;;38.85;13.88;;;;;;;0.97;81.82;98994.64;2298655;77;21728;-64
2020/12/14 03:21:32;;;;;;;38.63;13.90;;;;;;;1.02;82.07;98998.00;2304892;77;21285;-64
2020/12/14 03:24:34;;;;;;;40.85;14.25;;;;;;;1.04;82.09;98996.23;2306260;77;21249;-64
2020/12/14 03:27:36;;;;;;;38.50;16.00;;;;;;;1.16;82.07;98991.70;2305986;77;21268;-64
2020/12/14 03:30:38;;;;;;;36.05;14.10;;;;;;;1.27;82.28;98996.22;2306030;77;21264;-64
2020/12/14 03:33:41;;;;;;;40.52;14.80;;;;;;;1.36;81.96;98990.84;2305963;77;21602;-64
2020/12/14 03:36:43;;;;;;;43.78;18.10;;;;;;;1.39;81.74;98975.72;2305999;77;21252;-64
2020/12/14 03:39:45;;;;;;;40.88;18.80;;;;;;;1.40;81.61;98986.48;2305950;77;21281;-64
2020/12/14 03:42:47;;;;;;;40.17;16.42;;;;;;;1.44;81.70;98982.07;2306455;77;21586;-64
2020/12/14 03:45:49;;;;;;;40.58;17.75;;;;;;;1.58;81.78;98987.83;2306214;77;21260;-64
2020/12/14 03:48:53;;;;;;;40.10;15.78;;;;;;;1.67;81.39;98985.48;2305972;77;21240;-64
2020/12/14 03:51:55;;;;;;;38.00;14.20;;;;;;;1.56;81.15;98983.11;2305905;77;21251;-64
2020/12/14 03:54:57;;;;;;;39.03;13.95;;;;;;;1.43;81.26;98992.87;2305950;77;21732;-64
2020/12/14 03:57:59;;;;;;;45.15;16.55;;;;;;;1.38;81.36;98989.55;2305886;77;21269;-65
2020/12/14 04:01:01;;;;;;;40.85;15.48;;;;;;;1.29;81.50;98990.56;2305919;77;21287;-65
2020/12/14 04:04:03;;;;;;;41.30;15.68;;;;;;;1.21;81.68;98988.14;2306187;77;21298;-64
2020/12/14 04:07:06;;;;;;;;;;;;;;;1.22;81.89;99005.78;2308524;77;21275;-64
2020/12/14 04:10:08;;;;;;;37.60;14.95;;;;;;;1.32;82.01;99007.74;2305940;77;20237;-64
2020/12/14 04:13:10;;;;;;;41.77;14.63;;;;;;;1.38;81.72;99013.65;2305902;77;21240;-64
2020/12/14 04:16:12;;;;;;;39.85;15.43;;;;;;;1.26;81.48;99011.75;2306442;77;21141;-64
2020/12/14 04:19:15;;;;;;;39.10;14.47;;;;;;;1.20;81.53;99023.06;2306089;77;21713;-65
2020/12/14 04:22:18;;;;;;;42.60;15.13;;;;;;;1.13;81.81;99027.94;2305785;77;21256;-64
2020/12/14 04:25:20;;;;;;;40.30;15.50;;;;;;;1.01;81.84;99026.00;2306216;77;21261;-64
2020/12/14 04:28:22;;;;;;;38.30;13.93;;;;;;;0.86;82.03;99032.73;2305914;77;21264;-64
2020/12/14 04:31:24;;;;;;;42.05;15.95;;;;;;;0.80;82.50;99030.27;2306158;77;21269;-64
2020/12/14 04:34:27;;;;;;;39.38;15.78;;;;;;;0.85;82.42;99037.05;2305799;77;21284;-64
2020/12/14 04:37:29;;;;;;;39.10;14.65;;;;;;;0.85;82.47;99040.09;2306043;77;21688;-64
2020/12/14 04:40:31;;;;;;;44.40;15.48;;;;;;;0.85;82.49;99042.67;2305858;77;21264;-64
2020/12/14 04:43:33;;;;;;;38.88;14.03;;;;;;;0.85;82.56;99047.39;2305889;77;21248;-64
2020/12/14 04:46:35;;;;;;;36.33;13.80;;;;;;;0.80;82.58;99048.34;2305911;77;21712;-64
2020/12/14 04:49:37;;;;;;;37.80;14.80;;;;;;;0.81;82.75;99043.16;2305891;77;21264;-64
2020/12/14 04:52:39;;;;;;;39.60;14.38;;;;;;;0.93;82.80;99045.95;2305922;77;21292;-64
2020/12/14 04:55:41;;;;;;;41.80;15.65;;;;;;;1.10;82.80;99044.34;2306005;77;21688;-64
2020/12/14 04:58:44;;;;;;;42.98;16.82;;;;;;;1.19;82.50;99049.36;2306351;77;21091;-64
2020/12/14 05:01:46;;;;;;;46.30;16.48;;;;;;;1.28;82.42;99050.03;2306221;77;21272;-64
2020/12/14 05:04:48;;;;;;;42.33;16.12;;;;;;;1.32;82.32;99062.02;2306135;77;21712;-64
2020/12/14 05:07:50;;;;;;;45.88;18.80;;;;;;;1.36;82.30;99069.67;2306087;77;21574;-64
2020/12/14 05:10:52;;;;;;;52.13;20.27;;;;;;;1.39;82.16;99084.28;2274239;77;21260;-64
2020/12/14 05:13:54;;;;;;;49.40;19.23;;;;;;;1.49;82.06;99085.80;2305935;77;21692;-64
2020/12/14 05:16:56;;;;;;;47.78;18.92;;;;;;;1.55;81.86;99096.03;2305807;77;21264;-65
2020/12/14 05:19:58;;;;;;;41.98;15.15;;;;;;;1.57;81.64;99094.71;2306001;77;21676;-64
2020/12/14 05:23:00;;;;;;;46.45;17.77;;;;;;;1.56;81.67;99105.92;2305846;77;21294;-64
2020/12/14 05:26:02;;;;;;;41.08;16.25;;;;;;;1.56;81.65;99108.06;2306335;77;21134;-64
2020/12/14 05:29:04;;;;;;;45.52;17.62;;;;;;;1.60;81.68;99110.61;2305839;77;21244;-64
2020/12/14 05:32:07;;;;;;;45.38;18.00;;;;;;;1.61;81.60;99110.58;2306083;77;21142;-64
2020/12/14 05:35:09;;;;;;;;;;;;;;;1.65;81.93;99114.81;2308599;77;21249;-64
2020/12/14 05:38:11;;;;;;;45.67;19.30;;;;;;;1.75;81.56;99115.91;2306212;77;20238;-63
2020/12/14 05:41:13;;;;;;;51.28;23.20;;;;;;;1.73;81.53;99113.35;2305831;77;21273;-64
2020/12/14 05:44:16;;;;;;;48.52;22.73;;;;;;;1.74;81.55;99120.23;2305783;77;21288;-64
2020/12/14 05:47:18;;;;;;;53.90;23.30;;;;;;;1.78;81.50;99119.30;2305844;77;21269;-64
2020/12/14 05:50:20;;;;;;;50.08;21.25;;;;;;;1.78;81.37;99128.35;2305827;77;21275;-64
2020/12/14 05:53:22;;;;;;;51.92;21.62;;;;;;;1.80;81.40;99125.27;2306034;77;21710;-64
2020/12/14 05:56:24;;;;;;;47.50;20.97;;;;;;;1.84;81.19;99126.05;2305833;77;21252;-64
2020/12/14 05:59:26;;;;;;;47.73;20.85;;;;;;;1.76;81.08;99126.67;2306275;77;21312;-64
2020/12/14 06:02:28;;;;;;;53.13;20.90;;;;;;;1.76;81.11;99133.98;2305981;77;21704;-64
2020/12/14 06:05:31;;;;;;;51.73;21.30;;;;;;;1.76;81.11;99133.98;2305837;77;21257;-64
2020/12/14 06:08:33;;;;;;;52.33;21.57;;;;;;;1.81;81.21;99137.34;2305977;77;21287;-64
2020/12/14 06:11:35;;;;;;;48.90;21.25;;;;;;;1.81;81.07;99135.17;2305930;77;21257;-64
2020/12/14 06:14:37;;;;;;;52.67;20.23;;;;;;;1.77;81.06;99137.41;2306294;77;21269;-64
2020/12/14 06:17:39;;;;;;;48.35;19.82;;;;;;;1.72;81.17;99134.50;2306176;77;21118;-64
2020/12/14 06:20:41;;;;;;;50.03;20.00;;;;;;;1.76;81.28;99146.91;2306125;77;21261;-64
2020/12/14 06:23:43;;;;;;;47.05;19.82;;;;;;;1.75;81.15;99148.23;2305772;77;21723;-64
2020/12/14 06:26:45;;;;;;;49.63;20.37;;;;;;;1.74;81.26;99147.39;2306047;77;21240;-64
2020/12/14 06:29:48;;;;;;;55.45;23.62;;;;;;;1.76;81.13;99145.61;2306171;77;21263;-64
2020/12/14 06:32:50;;;;;;;65.75;26.30;;;;;;;1.76;81.13;99145.61;2305654;77;21680;-64
2020/12/14 06:35:54;;;;;;;63.40;25.65;;;;;;;1.76;81.29;99143.03;2274910;77;21280;-64
2020/12/14 06:38:56;;;;;;;65.75;26.42;;;;;;;1.73;81.09;99143.94;2305833;77;21284;-64
2020/12/14 06:41:58;;;;;;;60.45;24.85;;;;;;;1.71;81.29;99150.89;2305771;77;21248;-64
2020/12/14 06:45:01;;;;;;;55.23;23.77;;;;;;;1.67;81.21;99151.83;2305916;77;21699;-64
2020/12/14 06:48:03;;;;;;;57.35;24.98;;;;;;;1.67;81.35;99149.23;2306278;77;21268;-64
2020/12/14 06:51:05;;;;;;;56.40;22.75;;;;;;;1.70;81.42;99155.64;2274846;77;21264;-64
2020/12/14 06:54:07;;;;;;;51.13;21.70;;;;;;;1.82;81.67;99160.16;2305862;77;21275;-64
2020/12/14 06:57:09;;;;;;;51.25;21.62;;;;;;;1.88;81.22;99162.20;2306032;77;21715;-64
2020/12/14 07:00:11;;;;;;;50.92;21.55;;;;;;;1.88;81.08;99169.95;2305880;77;21268;-64
2020/12/14 07:03:13;;;;;;;54.83;22.87;;;;;;;1.88;81.07;99170.37;2306144;77;21569;-64
2020/12/14 07:06:16;;;;;;;66.10;28.95;;;;;;;1.94;81.21;99177.16;2305747;77;21288;-64
2020/12/14 07:09:19;;;;;;;54.58;24.30;;;;;;;1.96;81.05;99183.18;2305922;77;21130;-64
2020/12/14 07:12:21;;;;;;;49.77;22.13;;;;;;;1.96;80.86;99179.30;2306225;77;21252;-64
2020/12/14 07:15:23;;;;;;;58.78;28.32;;;;;;;1.90;80.86;99191.46;2306018;77;21696;-64
2020/12/14 07:18:25;;;;;;;63.28;29.75;;;;;;;1.88;80.90;99189.78;2305890;77;21680;-64
2020/12/14 07:21:27;;;;;;;56.28;26.20;;;;;;;1.91;81.20;99185.83;2305817;77;21677;-65
2020/12/14 07:24:29;;;;;;;56.95;25.02;;;;;;;1.92;80.89;99182.38;2305786;77;21258;-64
2020/12/14 07:27:32;;;;;;;59.33;26.35;;;;;;;1.82;80.88;99180.85;2305790;77;21700;-64
2020/12/14 07:30:34;;;;;;;56.37;23.80;;;;;;;1.81;81.25;99175.27;2305799;77;21252;-64
2020/12/14 07:33:36;;;;;;;57.27;24.63;;;;;;;1.88;81.14;99183.31;2305851;77;21270;-65
2020/12/14 07:36:38;;;;;;;53.10;23.05;;;;;;;1.88;81.08;99182.89;2306278;77;21139;-65
2020/12/14 07:39:40;;;;;;;49.18;20.77;;;;;;;1.90;81.07;99182.41;2305949;77;21301;-64
2020/12/14 07:42:44;;;;;;;47.62;21.33;;;;;;;1.95;80.97;99185.34;2306449;77;21118;-64
2020/12/14 07:45:46;;;;;;;51.73;23.05;;;;;;;2.00;81.08;99188.25;2306353;77;21154;-64
2020/12/14 07:48:48;;;;;;;51.58;22.65;;;;;;;2.06;81.04;99201.05;2306077;77;21248;-64
2020/12/14 07:51:51;;;;;;;53.63;25.00;;;;;;;2.14;80.70;99196.16;2306442;77;21134;-64
2020/12/14 07:54:53;;;;;;;51.45;23.07;;;;;;;2.09;80.58;99197.56;2306195;77;21678;-64
2020/12/14 07:57:55;;;;;;;64.37;31.85;;;;;;;2.08;80.93;99215.25;2305976;77;21253;-64
2020/12/14 08:00:57;;;;;;;61.98;29.20;;;;;;;2.05;80.48;99205.84;2306102;77;21260;-64
2020/12/14 08:03:59;;;;;;;56.10;25.12;;;;;;;2.09;80.77;99215.67;2306175;77;21716;-64
2020/12/14 08:07:02;;;;;;;56.68;24.15;;;;;;;2.16;80.60;99214.67;2306394;77;21134;-64
2020/12/14 08:10:04;;;;;;;51.63;22.90;;;;;;;2.05;80.44;99217.91;2306205;77;21689;-64
2020/12/14 08:13:09;;;;;;;54.85;22.95;;;;;;;1.98;80.60;99220.21;2305931;77;21284;-64
2020/12/14 08:16:11;;;;;;;50.95;21.75;;;;;;;2.02;81.00;99223.99;2305955;77;21256;-64
2020/12/14 08:19:14;;;;;;;53.98;22.87;;;;;;;2.11;80.72;99225.54;2305911;77;21720;-64
2020/12/14 08:22:17;;;;;;;51.10;23.00;;;;;;;2.11;80.62;99221.66;2301009;77;21276;-64
2020/12/14 08:25:19;;;;;;;53.17;21.75;;;;;;;2.18;80.60;99216.77;2298391;77;21269;-64
2020/12/14 08:28:21;;;;;;;54.67;23.32;;;;;;;2.20;80.71;99212.43;2298784;77;21263;-64
2020/12/14 08:31:23;;;;;;;57.43;26.05;;;;;;;2.23;80.68;99214.11;2298701;77;21696;-64
2020/12/14 08:34:26;;;;;;;56.05;24.67;;;;;;;2.30;80.95;99214.39;2298496;77;21207;-64
2020/12/14 08:37:28;;;;;;;57.30;24.82;;;;;;;2.35;80.40;99222.89;2299037;77;21253;-64
2020/12/14 08:40:30;;;;;;;58.42;25.32;;;;;;;2.39;80.28;99227.12;2298705;77;21696;-64
2020/12/14 08:43:32;;;;;;;60.95;25.68;;;;;;;2.36;80.24;99231.08;2298501;77;21241;-64
2020/12/14 08:46:34;;;;;;;59.65;25.15;;;;;;;2.41;80.50;99218.03;2298530;77;21711;-64
2020/12/14 08:49:37;;;;;;;65.95;27.87;;;;;;;2.42;80.40;99223.63;2277114;77;21284;-64
2020/12/14 08:52:39;;;;;;;63.70;27.50;;;;;;;2.47;80.39;99225.69;2298703;77;21720;-64
2020/12/14 08:55:41;;;;;;;60.38;26.37;;;;;;;2.48;80.39;99228.66;2298506;77;21237;-64
2020/12/14 08:58:43;;;;;;;65.28;29.75;;;;;;;2.57;80.36;99224.59;2299008;77;21264;-64
2020/12/14 09:01:46;;;;;;;65.17;28.15;;;;;;;2.64;79.89;99222.70;2298846;77;21331;-64
2020/12/14 09:04:48;;;;;;;61.80;28.95;;;;;;;2.71;80.07;99207.43;2298490;77;21229;-64
2020/12/14 09:07:51;;;;;;;61.70;27.60;;;;;;;2.76;79.64;99206.89;2277233;77;21083;-64
2020/12/14 09:10:53;;;;;;;59.13;25.43;;;;;;;2.74;79.81;99207.39;2298485;77;21252;-64
2020/12/14 09:13:55;;;;;;;;;;;;;;;2.74;79.75;99198.31;2301098;77;21248;-64
2020/12/14 09:16:58;;;;;;;58.02;24.35;;;;;;;2.78;79.83;99205.56;2298945;77;20238;-64
2020/12/14 09:20:01;;;;;;;56.95;25.60;;;;;;;2.88;79.73;99202.31;2298422;77;21252;-64
2020/12/14 09:23:03;;;;;;;54.45;23.90;;;;;;;2.91;79.70;99197.05;2304727;77;21276;-64
2020/12/14 09:26:06;;;;;;;56.95;24.37;;;;;;;2.95;79.61;99198.69;2305923;77;21708;-64
2020/12/14 09:29:08;;;;;;;;;;;;;;;2.95;79.38;99188.33;2308418;77;21581;-64
2020/12/14 09:32:11;;;;;;;57.53;25.07;;;;;;;2.93;79.46;99180.59;2306219;77;20273;-64
2020/12/14 09:35:13;;;;;;;;;;;;;;;2.96;79.52;99177.08;2308975;77;21328;-64
2020/12/14 09:38:16;;;;;;;56.83;23.87;;;;;;;3.09;79.87;99181.06;2306479;77;20127;-64
2020/12/14 09:41:18;;;;;;;54.48;23.90;;;;;;;3.09;78.84;99186.25;2305763;77;21693;-64
2020/12/14 09:44:20;;;;;;;59.10;25.70;;;;;;;3.09;79.10;99191.89;2305850;77;21260;-64
2020/12/14 09:47:22;;;;;;;59.98;25.70;;;;;;;3.12;79.02;99181.44;2306361;77;21180;-64
2020/12/14 09:50:24;;;;;;;56.68;24.30;;;;;;;3.07;78.78;99178.94;2275004;77;21272;-64
2020/12/14 09:53:26;;;;;;;52.17;22.73;;;;;;;3.07;78.89;99183.28;2306025;77;21316;-64
2020/12/14 09:56:29;;;;;;;54.20;23.22;;;;;;;3.16;78.52;99192.14;2274971;77;21267;-64
2020/12/14 09:59:31;;;;;;;55.98;24.47;;;;;;;3.11;78.62;99187.05;2306065;77;21280;-64
2020/12/14 10:02:34;;;;;;;58.70;24.98;;;;;;;3.13;78.81;99181.83;2305931;77;21700;-64
2020/12/14 10:05:36;;;;;;;57.50;24.63;;;;;;;3.17;78.70;99180.86;2305810;77;21308;-64
2020/12/14 10:08:40;;;;;;;53.20;22.87;;;;;;;3.20;78.60;99178.64;2305784;77;21268;-64
2020/12/14 10:11:42;;;;;;;54.75;22.62;;;;;;;3.25;78.74;99175.05;2305782;77;21260;-64
2020/12/14 10:14:45;;;;;;;54.25;22.60;;;;;;;3.25;78.65;99179.39;2305665;77;21256;-64
2020/12/14 10:17:47;;;;;;;59.27;24.87;;;;;;;3.27;78.27;99184.08;2305928;77;21264;-64
2020/12/14 10:20:49;;;;;;;64.87;26.87;;;;;;;3.28;78.56;99184.49;2305805;77;21261;-64
2020/12/14 10:23:53;;;;;;;58.95;25.92;;;;;;;3.44;78.73;99185.78;2306068;77;21554;-64
2020/12/14 10:26:55;;;;;;;57.62;25.95;;;;;;;3.44;78.60;99181.89;2305662;77;21272;-64
2020/12/14 10:29:58;;;;;;;;;;;;;;;3.51;78.53;99182.59;2277483;77;21700;-64
2020/12/14 10:33:00;;;;;;;64.45;26.37;;;;;;;3.56;78.33;99181.17;2305927;77;20238;-64
2020/12/14 10:36:03;;;;;;;56.85;27.45;;;;;;;3.61;78.59;99184.51;2306322;77;21260;-64
2020/12/14 10:39:05;;;;;;;64.65;27.22;;;;;;;3.60;78.15;99187.98;2305997;77;21688;-64
2020/12/14 10:42:07;;;;;;;63.50;27.70;;;;;;;3.58;78.15;99185.89;2306278;77;21261;-64
2020/12/14 10:45:09;;;;;;;64.65;27.27;;;;;;;3.63;78.31;99185.30;2306030;77;21695;-64
2020/12/14 10:48:12;;;;;;;56.98;25.85;;;;;;;3.62;78.07;99183.16;2305716;77;21281;-64
2020/12/14 10:51:14;;;;;;;62.43;28.25;;;;;;;3.64;78.30;99190.91;2305765;77;21272;-64
2020/12/14 10:54:16;;;;;;;58.45;27.20;;;;;;;3.66;78.13;99177.89;2306026;77;21264;-64
2020/12/14 10:57:19;;;;;;;58.30;26.12;;;;;;;3.73;77.92;99171.64;2306023;77;21287;-64
2020/12/14 11:00:22;;;;;;;58.60;28.42;;;;;;;3.75;77.81;99168.54;2305995;77;21327;-64
2020/12/14 11:03:25;;;;;;;64.58;28.52;;;;;;;3.79;77.60;99176.65;2306107;77;21150;-64
2020/12/14 11:06:28;;;;;;;66.42;27.65;;;;;;;3.72;77.59;99172.09;2306136;77;21095;-64
2020/12/14 11:09:30;;;;;;;;;;;;;;;3.73;78.00;99170.34;2308641;77;21689;-64
2020/12/14 11:12:32;;;;;;;60.15;26.33;;;;;;;3.77;77.71;99162.42;2305723;77;20253;-64
2020/12/14 11:15:35;;;;;;;66.45;28.38;;;;;;;3.83;77.79;99156.67;2306133;77;21284;-64
2020/12/14 11:18:37;;;;;;;64.80;28.95;;;;;;;3.93;77.91;99159.41;2306239;77;21268;-64
2020/12/14 11:21:40;;;;;;;59.50;26.27;;;;;;;3.96;77.71;99167.09;2304016;77;21692;-64
2020/12/14 11:24:42;;;;;;;58.73;27.02;;;;;;;4.00;77.28;99168.72;2298597;77;21248;-64
2020/12/14 11:27:44;;;;;;;57.17;24.77;;;;;;;4.01;77.43;99174.75;2298820;77;21696;-64
2020/12/14 11:30:47;;;;;;;63.35;26.95;;;;;;;4.04;77.02;99181.14;2298575;77;21253;-64
2020/12/14 11:33:52;;;;;;;58.73;25.95;;;;;;;3.95;77.18;99175.77;2298798;77;21708;-64
2020/12/14 11:36:54;;;;;;;57.78;26.35;;;;;;;3.92;77.12;99178.03;2298687;77;21174;-64
2020/12/14 11:39:57;;;;;;;58.75;26.77;;;;;;;3.92;77.16;99180.63;2298668;77;21748;-64
2020/12/14 11:42:59;;;;;;;58.20;25.55;;;;;;;3.89;76.90;99186.33;2298972;77;21143;-64
2020/12/14 11:46:01;;;;;;;55.63;24.23;;;;;;;3.87;76.82;99172.56;2277208;77;21694;-64
2020/12/14 11:49:03;;;;;;;55.23;24.35;;;;;;;3.90;77.29;99173.77;2299077;77;21248;-64
2020/12/14 11:52:06;;;;;;;54.65;24.35;;;;;;;3.90;76.83;99181.55;2298689;77;21708;-64
2020/12/14 11:55:08;;;;;;;59.50;24.60;;;;;;;3.89;76.91;99183.73;2298768;77;21565;-64
2020/12/14 11:58:10;;;;;;;57.78;24.35;;;;;;;3.89;76.63;99186.33;2298822;77;21280;-64
2020/12/14 12:01:12;;;;;;;57.88;25.80;;;;;;;3.79;76.53;99185.30;2299006;77;21284;-64
2020/12/14 12:04:15;;;;;;;61.83;27.10;;;;;;;3.77;76.83;99186.23;2299043;77;21688;-64
2020/12/14 12:07:17;;;;;;;59.63;27.37;;;;;;;3.78;77.09;99186.19;2298554;77;21138;-64
2020/12/14 12:10:20;;;;;;;61.95;27.87;;;;;;;3.83;77.38;99187.81;2298526;77;21703;-64
2020/12/14 12:13:22;;;;;;;58.90;27.10;;;;;;;3.82;76.92;99186.94;2298478;77;21276;-64
2020/12/14 12:16:24;;;;;;;59.88;26.37;;;;;;;3.85;77.09;99182.12;2298790;77;21715;-64
2020/12/14 12:19:26;;;;;;;60.88;25.92;;;;;;;3.86;76.83;99181.23;2298530;77;21288;-64
2020/12/14 12:22:28;;;;;;;57.15;26.37;;;;;;;3.80;76.74;99171.41;2301940;77;21280;-64
2020/12/14 12:25:31;;;;;;;62.98;26.95;;;;;;;3.83;76.59;99168.34;2306056;77;21696;-64
2020/12/14 12:28:33;;;;;;;63.78;27.30;;;;;;;3.88;76.71;99167.33;2306432;77;21086;-64
2020/12/14 12:31:35;;;;;;;58.98;25.00;;;;;;;3.91;76.41;99165.94;2305903;77;21252;-65
2020/12/14 12:34:37;;;;;;;59.98;25.37;;;;;;;3.99;76.64;99165.28;2305915;77;21268;-65
2020/12/14 12:37:42;;;;;;;60.83;26.20;;;;;;;4.14;76.86;99162.67;2306275;77;21091;-64
2020/12/14 12:40:44;;;;;;;59.27;27.07;;;;;;;4.29;76.02;99159.22;2306102;77;21272;-64
2020/12/14 12:43:46;;;;;;;62.40;28.62;;;;;;;4.15;75.47;99155.30;2306072;77;21748;-64
2020/12/14 12:46:49;;;;;;;65.52;27.87;;;;;;;4.08;76.05;99155.08;2305917;77;21245;-64
2020/12/14 12:49:51;;;;;;;66.07;28.92;;;;;;;4.11;76.15;99156.74;2305985;77;21259;-64
2020/12/14 12:52:53;;;;;;;65.32;28.23;;;;;;;4.21;76.23;99155.56;2306109;77;21681;-64
2020/12/14 12:55:55;;;;;;;71.17;29.45;;;;;;;4.22;75.67;99153.81;2305884;77;21260;-64
2020/12/14 12:58:58;;;;;;;;;;;;;;;4.23;75.79;99149.03;2309011;77;21138;-64
2020/12/14 13:02:01;;;;;;;;;;;;;;;4.14;75.65;99150.99;2308849;77;20221;-64
2020/12/14 13:05:03;;;;;;;60.43;25.95;;;;;;;3.94;75.33;99148.98;2306260;77;20127;-64
2020/12/14 13:08:05;;;;;;;59.75;25.85;;;;;;;3.87;76.18;99165.62;2305991;77;21269;-64
2020/12/14 13:11:07;;;;;;;60.75;25.72;;;;;;;3.89;76.22;99167.71;2305843;77;21704;-64
2020/12/14 13:14:11;;;;;;;58.20;24.12;;;;;;;3.84;76.22;99161.81;2306382;77;21248;-64
2020/12/14 13:17:13;;;;;;;64.32;26.40;;;;;;;3.87;76.46;99168.22;2306239;77;21255;-64
2020/12/14 13:20:16;;;;;;;67.78;27.50;;;;;;;3.90;76.23;99169.42;2305842;77;21106;-64
2020/12/14 13:23:18;;;;;;;65.92;26.62;;;;;;;3.83;76.06;99176.13;2301412;77;21276;-64
2020/12/14 13:26:20;;;;;;;59.60;25.52;;;;;;;3.66;76.04;99173.54;2298694;77;21711;-64
2020/12/14 13:29:22;;;;;;;65.92;26.75;;;;;;;3.58;76.07;99179.41;2298480;77;21244;-64
2020/12/14 13:32:24;;;;;;;63.10;27.32;;;;;;;3.50;76.45;99182.19;2298539;77;21727;-64
2020/12/14 13:35:26;;;;;;;67.00;27.85;;;;;;;3.40;76.38;99180.73;2298363;77;21304;-64
2020/12/14 13:38:28;;;;;;;66.80;28.73;;;;;;;3.26;76.59;99183.23;2298932;77;21257;-64
2020/12/14 13:41:30;;;;;;;61.58;26.48;;;;;;;3.07;76.78;99182.83;2298404;77;21735;-65
2020/12/14 13:44:32;;;;;;;68.37;28.92;;;;;;;3.00;77.07;99188.20;2298737;77;21244;-64
2020/12/14 13:47:35;;;;;;;70.78;28.55;;;;;;;2.99;77.13;99180.02;2298723;77;21106;-64
2020/12/14 13:50:37;;;;;;;64.77;28.45;;;;;;;2.87;77.26;99175.99;2298687;77;21264;-64
2020/12/14 13:53:39;;;;;;;65.55;26.85;;;;;;;2.83;77.34;99180.41;2298668;77;21253;-64
2020/12/14 13:56:41;;;;;;;68.10;28.47;;;;;;;2.72;77.48;99184.98;2298789;77;21534;-64
2020/12/14 13:59:43;;;;;;;65.70;27.45;;;;;;;2.66;77.62;99183.39;2298343;77;21300;-64
2020/12/14 14:02:45;;;;;;;66.67;27.55;;;;;;;2.63;77.77;99182.17;2298639;77;21700;-64
2020/12/14 14:05:47;;;;;;;63.80;26.90;;;;;;;2.52;77.61;99184.15;2298927;77;21257;-65
2020/12/14 14:08:50;;;;;;;68.80;28.85;;;;;;;2.40;78.03;99191.75;2298545;77;21665;-64
2020/12/14 14:11:52;;;;;;;68.72;28.02;;;;;;;2.31;78.13;99191.94;2298265;77;21708;-64